Time;durP1;ratioP1;P1;durP2;ratioP2;P2;SDS_P1;SDS_P2;PMS_P1;PMS_P2;Temp;Humidity;BMP_temperature;BMP_pressure;BME280_temperature;BME280_humidity;BME280_pressure;Samples;Min_cycle;Max_cycle;Signal;HPM_P1;HPM_P2
2023/03/26 00:01:52;;;;;;;24.13;5.32;;;;;;;8.80;90.71;100084.97;5084053;28;20140;-80
2023/03/26 00:04:20;;;;;;;26.10;5.45;;;;;;;8.78;91.20;100076.47;5083842;28;20045;-80
2023/03/26 00:06:47;;;;;;;25.75;6.18;;;;;;;8.82;90.98;100091.66;5085423;28;20105;-80
2023/03/26 00:09:16;;;;;;;24.00;5.32;;;;;;;8.81;91.17;100090.03;5083114;28;20467;-78
2023/03/26 00:11:45;;;;;;;26.77;5.72;;;;;;;8.83;91.19;100093.31;5081645;28;20045;-80
2023/03/26 00:14:12;;;;;;;33.13;6.93;;;;;;;8.85;91.05;100091.34;5082727;28;20115;-79
2023/03/26 00:16:40;;;;;;;34.47;8.55;;;;;;;8.92;91.09;100092.34;5082532;28;20063;-79
2023/03/26 00:19:08;;;;;;;22.45;6.18;;;;;;;8.92;91.22;100094.16;5084474;28;20051;-79
2023/03/26 00:21:34;;;;;;;24.42;6.65;;;;;;;8.94;91.26;100092.19;5084644;28;20064;-78
2023/03/26 00:24:04;;;;;;;24.83;6.60;;;;;;;8.96;90.97;100098.91;5083690;28;20131;-79
2023/03/26 00:29:00;;;;;;;24.40;5.30;;;;;;;8.93;91.20;100088.78;5035367;28;20434;-81
2023/03/26 00:31:27;;;;;;;24.77;5.47;;;;;;;8.91;90.84;100074.25;5040191;28;20112;-80
2023/03/26 00:33:54;;;;;;;20.52;5.05;;;;;;;8.94;90.85;100079.97;5037549;28;20174;-78
2023/03/26 00:36:22;;;;;;;20.77;5.53;;;;;;;8.94;90.94;100081.75;5036712;28;20482;-80
2023/03/26 00:38:48;;;;;;;24.38;6.30;;;;;;;8.91;90.94;100082.06;5036430;28;20053;-81
2023/03/26 00:41:24;;;;;;;26.90;5.65;;;;;;;8.90;91.42;100068.22;5033572;28;20140;-78
2023/03/26 00:43:54;;;;;;;19.65;5.00;;;;;;;8.85;91.46;100065.25;5034827;28;20067;-79
2023/03/26 00:46:23;;;;;;;24.00;6.53;;;;;;;8.78;91.80;100069.47;5031128;28;20049;-80
2023/03/26 00:48:50;;;;;;;15.45;4.57;;;;;;;8.71;92.14;100065.03;5035377;28;20049;-80
2023/03/26 00:51:19;;;;;;;22.88;5.68;;;;;;;8.65;92.84;100056.06;5037885;28;20071;-79
2023/03/26 00:53:47;;;;;;;19.35;4.72;;;;;;;8.64;93.10;100055.22;5038412;28;20070;-78
2023/03/26 00:56:17;;;;;;;23.58;5.47;;;;;;;8.72;92.81;100059.66;5036309;28;20076;-78
2023/03/26 00:58:44;;;;;;;30.00;5.18;;;;;;;8.72;93.15;100057.06;5031274;28;20140;-78
2023/03/26 01:01:13;;;;;;;24.85;6.03;;;;;;;8.68;93.06;100055.75;5035017;28;20133;-79
2023/03/26 01:03:43;;;;;;;29.10;5.18;;;;;;;8.62;93.10;100045.94;5035514;28;20038;-79
2023/03/26 01:06:12;;;;;;;27.05;5.22;;;;;;;8.58;93.19;100044.63;5037148;28;20049;-80
2023/03/26 01:08:43;;;;;;;25.63;5.57;;;;;;;8.54;93.17;100043.28;5037910;28;20076;-78
2023/03/26 01:11:14;;;;;;;27.52;5.18;;;;;;;8.42;93.56;100027.13;5040527;28;20153;-80
2023/03/26 01:13:42;;;;;;;25.90;5.28;;;;;;;8.26;93.98;100025.22;5044382;28;20046;-79
2023/03/26 01:16:19;;;;;;;29.83;5.57;;;;;;;8.11;94.42;100018.97;5045908;28;20456;-79
2023/03/26 01:18:48;;;;;;;24.88;5.40;;;;;;;7.98;94.92;100018.59;5042270;28;20053;-79
2023/03/26 01:21:21;;;;;;;20.05;5.43;;;;;;;7.83;95.46;100009.69;5042422;28;20054;-77
2023/03/26 01:23:51;;;;;;;26.77;5.28;;;;;;;7.66;96.01;100013.97;5042516;28;20052;-79
2023/03/26 01:26:37;;;;;;;27.70;5.07;;;;;;;7.49;96.56;100000.03;5044471;28;20113;-79
2023/03/26 01:29:07;;;;;;;23.33;5.00;;;;;;;7.52;96.81;100012.75;5041549;28;20073;-80
2023/03/26 01:31:40;;;;;;;25.30;5.47;;;;;;;7.41;97.10;100005.16;5040220;28;20053;-79
2023/03/26 01:34:12;;;;;;;23.70;5.35;;;;;;;7.35;97.53;100002.34;5039024;28;20045;-78
2023/03/26 01:36:45;;;;;;;20.08;5.20;;;;;;;7.25;97.94;99999.81;5043780;28;20045;-79
2023/03/26 01:39:24;;;;;;;26.98;5.80;;;;;;;7.19;98.33;100000.41;5044174;28;20069;-79
2023/03/26 01:41:57;;;;;;;16.13;4.90;;;;;;;7.13;98.86;100006.22;5038317;28;20409;-79
2023/03/26 01:44:30;;;;;;;17.15;5.47;;;;;;;7.10;98.96;99996.91;5041300;28;20354;-80
2023/03/26 01:46:59;;;;;;;24.15;5.43;;;;;;;7.05;99.16;99995.75;5038532;28;20053;-79
2023/03/26 01:49:27;;;;;;;21.25;5.40;;;;;;;7.02;99.52;99985.66;5037936;28;20072;-79
2023/03/26 01:51:56;;;;;;;18.15;4.97;;;;;;;6.97;99.60;99997.31;5033010;28;20333;-77
2023/03/26 01:54:26;;;;;;;25.40;5.63;;;;;;;6.96;99.98;99993.06;5032651;28;20104;-81
2023/03/26 01:57:04;;;;;;;26.52;5.03;;;;;;;6.96;100.00;99993.06;5029502;28;20254;-79
2023/03/26 01:59:51;;;;;;;20.73;4.65;;;;;;;6.93;100.00;99989.94;5041066;28;20049;-79
2023/03/26 02:02:26;;;;;;;18.63;4.68;;;;;;;7.03;100.00;99982.91;5048568;28;20128;-79
2023/03/26 02:04:57;;;;;;;23.15;5.50;;;;;;;7.03;100.00;99979.47;5046650;28;20041;-81
2023/03/26 02:07:33;;;;;;;21.10;5.00;;;;;;;6.98;100.00;99972.94;5037336;28;20056;-79
2023/03/26 02:10:06;;;;;;;20.27;6.18;;;;;;;6.94;100.00;99970.78;5038741;28;20109;-79
2023/03/26 02:12:35;;;;;;;19.95;4.75;;;;;;;7.03;100.00;99969.88;5041015;28;20053;-79
2023/03/26 02:15:02;;;;;;;15.95;4.78;;;;;;;7.06;100.00;99961.78;5037054;28;20110;-80
2023/03/26 02:17:31;;;;;;;17.20;4.70;;;;;;;7.17;100.00;99965.91;5036542;28;20096;-79
2023/03/26 02:19:58;;;;;;;20.98;5.93;;;;;;;7.24;99.87;99952.16;5043747;28;20137;-79
2023/03/26 02:22:28;;;;;;;24.80;5.97;;;;;;;7.38;99.70;99944.78;5037626;28;20053;-80
2023/03/26 02:24:55;;;;;;;20.20;5.93;;;;;;;7.42;99.04;99936.53;5039697;28;20049;-80
2023/03/26 02:27:22;;;;;;;15.95;5.18;;;;;;;7.41;98.83;99934.88;5034770;28;20077;-80
2023/03/26 02:29:50;;;;;;;19.13;5.00;;;;;;;7.48;98.26;99922.91;5034614;28;20158;-80
2023/03/26 02:32:18;;;;;;;25.52;5.22;;;;;;;7.55;97.82;99918.72;5037886;28;20049;-80
2023/03/26 02:34:46;;;;;;;14.77;4.43;;;;;;;7.56;97.31;99915.13;5038430;28;20049;-81
2023/03/26 02:37:12;;;;;;;17.80;4.53;;;;;;;7.63;97.45;99920.53;5039040;28;20052;-80
2023/03/26 02:39:39;;;;;;;19.65;5.20;;;;;;;7.65;97.16;99909.00;5033925;28;20042;-80
2023/03/26 02:42:06;;;;;;;15.20;5.60;;;;;;;7.65;97.08;99903.78;5034402;28;20045;-81
2023/03/26 02:44:32;;;;;;;17.65;5.22;;;;;;;7.68;96.91;99896.63;5039138;28;20077;-81
2023/03/26 02:47:00;;;;;;;16.60;4.45;;;;;;;7.70;96.70;99892.09;5037935;28;20219;-81
2023/03/26 02:49:27;;;;;;;27.02;4.97;;;;;;;7.80;96.13;99892.78;5038261;28;20232;-79
2023/03/26 02:51:55;;;;;;;18.13;5.00;;;;;;;7.81;96.18;99892.63;5037395;28;20672;-81
2023/03/26 02:54:21;;;;;;;15.73;4.65;;;;;;;7.91;95.57;99887.31;5037934;28;20129;-80
2023/03/26 02:56:48;;;;;;;22.02;5.28;;;;;;;7.92;95.45;99886.34;5033173;28;20124;-80
2023/03/26 02:59:15;;;;;;;13.68;4.47;;;;;;;7.91;95.25;99877.72;5036750;28;20081;-80
2023/03/26 03:01:42;;;;;;;16.33;5.03;;;;;;;7.84;95.59;99874.09;5035447;28;20049;-79
2023/03/26 03:04:10;;;;;;;18.30;4.95;;;;;;;7.81;95.68;99870.97;5037936;28;20051;-81
2023/03/26 03:06:38;;;;;;;15.50;4.70;;;;;;;7.80;96.04;99871.94;5033569;28;20132;-81
2023/03/26 03:09:04;;;;;;;18.00;4.82;;;;;;;7.83;96.25;99867.25;5037993;28;20055;-81
2023/03/26 03:11:31;;;;;;;20.35;4.22;;;;;;;7.88;95.90;99869.38;5038111;28;20057;-81
2023/03/26 03:13:58;;;;;;;15.52;4.82;;;;;;;7.95;95.60;99868.59;5038696;28;20128;-81
2023/03/26 03:16:24;;;;;;;17.50;4.78;;;;;;;7.93;95.49;99864.53;5038346;28;20053;-79
2023/03/26 03:18:55;;;;;;;15.52;4.20;;;;;;;7.88;95.42;99857.19;5036830;28;20084;-82
2023/03/26 03:21:25;;;;;;;20.73;4.40;;;;;;;7.91;95.56;99854.25;5032151;28;20049;-81
2023/03/26 03:23:51;;;;;;;18.63;4.60;;;;;;;7.90;95.65;99854.41;5038048;28;20053;-80
2023/03/26 03:26:21;;;;;;;13.35;4.57;;;;;;;7.83;95.79;99843.81;5039202;28;20057;-81
2023/03/26 03:28:48;;;;;;;13.38;4.28;;;;;;;7.85;95.80;99843.66;5036539;28;20560;-82
2023/03/26 03:31:15;;;;;;;17.67;4.32;;;;;;;7.84;95.95;99839.41;5040266;28;20132;-78
2023/03/26 03:33:42;;;;;;;20.15;5.15;;;;;;;7.87;96.06;99844.31;5040385;28;20041;-81
2023/03/26 03:36:10;;;;;;;19.15;4.28;;;;;;;7.88;95.82;99838.13;5039656;28;20049;-79
2023/03/26 03:38:38;;;;;;;19.95;4.95;;;;;;;7.92;95.72;99835.06;5042939;28;20042;-81
2023/03/26 03:41:06;;;;;;;16.23;4.38;;;;;;;7.90;95.91;99836.19;5039013;28;20108;-81
2023/03/26 03:43:32;;;;;;;25.00;4.60;;;;;;;7.87;96.13;99834.72;5040953;28;20129;-80
2023/03/26 03:45:59;;;;;;;14.43;4.28;;;;;;;7.86;96.22;99825.25;5040214;28;20105;-81
2023/03/26 03:48:26;;;;;;;10.82;3.95;;;;;;;7.87;96.38;99818.25;5039810;28;20492;-81
2023/03/26 03:50:53;;;;;;;16.67;4.55;;;;;;;7.87;96.63;99824.28;5039243;28;20072;-82
2023/03/26 03:53:20;;;;;;;14.98;4.32;;;;;;;7.89;96.76;99813.72;5037671;28;20053;-81
2023/03/26 03:55:51;;;;;;;10.45;4.65;;;;;;;7.97;97.16;99811.94;5037652;28;20050;-81
2023/03/26 03:58:20;;;;;;;17.80;4.75;;;;;;;7.96;97.24;99806.91;5037391;28;20476;-81
2023/03/26 04:00:47;;;;;;;17.13;4.15;;;;;;;7.80;97.80;99804.25;5035949;28;20053;-81
2023/03/26 04:03:14;;;;;;;13.85;4.47;;;;;;;7.79;98.71;99805.22;5036420;28;20116;-83
2023/03/26 04:05:40;;;;;;;16.80;4.35;;;;;;;7.76;99.16;99800.31;5031534;28;20045;-82
2023/03/26 04:08:07;;;;;;;14.60;4.25;;;;;;;7.70;99.53;99804.38;5031989;28;20095;-82
2023/03/26 04:10:34;;;;;;;17.77;4.45;;;;;;;7.66;99.66;99798.66;5036516;28;20132;-82
2023/03/26 04:13:02;;;;;;;19.48;4.32;;;;;;;7.66;100.00;99796.06;5033636;28;20079;-79
2023/03/26 04:15:28;;;;;;;15.48;3.97;;;;;;;7.67;100.00;99789.06;5033273;28;20042;-78
2023/03/26 04:17:55;;;;;;;15.98;4.50;;;;;;;7.72;100.00;99788.59;5034536;28;20117;-81
2023/03/26 04:20:22;;;;;;;17.05;3.95;;;;;;;7.66;100.00;99779.59;5033844;28;20148;-81
2023/03/26 04:22:48;;;;;;;10.20;3.78;;;;;;;7.66;100.00;99782.22;5035010;28;20095;-81
2023/03/26 04:25:15;;;;;;;16.23;3.97;;;;;;;7.63;100.00;99772.94;5031659;28;20602;-80
2023/03/26 04:27:42;;;;;;;16.80;4.78;;;;;;;7.59;100.00;99774.22;5035620;28;20547;-80
2023/03/26 04:30:17;;;;;;;14.55;3.88;;;;;;;7.53;100.00;99774.88;5035644;28;20412;-79
2023/03/26 04:32:45;;;;;;;16.38;4.32;;;;;;;7.53;100.00;99769.66;5038813;28;20077;-80
2023/03/26 04:35:15;;;;;;;11.00;3.80;;;;;;;7.62;100.00;99757.47;5034861;28;20047;-80
2023/03/26 04:37:44;;;;;;;17.20;3.63;;;;;;;7.59;100.00;99762.97;5030027;28;20417;-80
2023/03/26 04:40:15;;;;;;;13.10;3.88;;;;;;;7.62;100.00;99758.28;5026664;28;20064;-81
2023/03/26 04:42:44;;;;;;;12.52;4.05;;;;;;;7.58;100.00;99751.75;5034761;28;20129;-81
2023/03/26 04:45:13;;;;;;;14.90;4.22;;;;;;;7.45;100.00;99743.59;5033352;28;20071;-81
2023/03/26 04:47:40;;;;;;;16.88;4.55;;;;;;;7.40;100.00;99742.44;5034521;28;20041;-81
2023/03/26 04:50:10;;;;;;;11.63;4.25;;;;;;;7.29;100.00;99740.94;5034100;28;20128;-81
2023/03/26 04:52:37;;;;;;;11.65;3.55;;;;;;;7.26;100.00;99747.25;5033966;28;20045;-80
2023/03/26 04:55:05;;;;;;;19.50;4.22;;;;;;;7.24;100.00;99744.00;5033105;28;20137;-80
2023/03/26 04:57:37;;;;;;;17.52;4.40;;;;;;;7.19;100.00;99738.44;5029601;28;20384;-81
2023/03/26 05:00:10;;;;;;;13.32;4.20;;;;;;;7.30;100.00;99732.16;5029329;28;20133;-80
2023/03/26 05:02:40;;;;;;;12.23;4.20;;;;;;;7.40;100.00;99730.25;5029879;28;20049;-80
2023/03/26 05:05:08;;;;;;;15.55;4.43;;;;;;;7.36;100.00;99741.94;5040033;28;20512;-79
2023/03/26 05:07:35;;;;;;;14.85;4.57;;;;;;;7.35;100.00;99732.50;5043576;28;20084;-79
2023/03/26 05:10:02;;;;;;;10.55;4.05;;;;;;;7.43;100.00;99723.91;5039507;28;20042;-80
2023/03/26 05:12:29;;;;;;;17.90;4.72;;;;;;;7.44;100.00;99728.94;5035364;28;20416;-80
2023/03/26 05:14:55;;;;;;;17.23;6.03;;;;;;;7.48;100.00;99730.28;5029882;28;20133;-80
2023/03/26 05:17:23;;;;;;;15.68;5.07;;;;;;;7.54;100.00;99721.03;5030602;28;20052;-80
2023/03/26 05:19:52;;;;;;;11.15;4.55;;;;;;;7.50;100.00;99710.09;5032071;28;20053;-80
2023/03/26 05:22:18;;;;;;;17.00;5.05;;;;;;;7.55;100.00;99709.63;5033686;28;20053;-79
2023/03/26 05:24:45;;;;;;;14.43;4.38;;;;;;;7.56;100.00;99708.66;5028889;28;20125;-80
2023/03/26 05:27:15;;;;;;;17.52;5.25;;;;;;;7.60;100.00;99702.94;5033592;28;20045;-80
2023/03/26 05:29:42;;;;;;;17.02;4.40;;;;;;;7.66;100.00;99701.50;5032794;28;20555;-80
2023/03/26 05:32:09;;;;;;;15.98;4.97;;;;;;;7.61;100.00;99690.75;5032457;28;20045;-80
2023/03/26 05:34:35;;;;;;;15.95;4.75;;;;;;;7.64;100.00;99695.63;5034291;28;20045;-80
2023/03/26 05:37:05;;;;;;;15.02;4.57;;;;;;;7.66;100.00;99678.88;5037087;28;20072;-80
2023/03/26 05:39:32;;;;;;;19.98;4.97;;;;;;;7.66;100.00;99678.88;5035389;28;20091;-81
2023/03/26 05:41:58;;;;;;;14.40;4.35;;;;;;;7.59;100.00;99679.66;5030297;28;20160;-79
2023/03/26 05:44:25;;;;;;;15.13;5.07;;;;;;;7.52;100.00;99676.91;5036412;28;20038;-80
2023/03/26 05:46:52;;;;;;;15.23;4.70;;;;;;;7.45;100.00;99678.53;5036882;28;20073;-80
2023/03/26 05:49:19;;;;;;;13.43;4.65;;;;;;;7.45;100.00;99681.13;5036985;28;20136;-80
2023/03/26 05:51:45;;;;;;;19.33;5.18;;;;;;;7.49;100.00;99674.63;5035476;28;20045;-81
2023/03/26 05:54:13;;;;;;;16.95;4.95;;;;;;;7.52;100.00;99674.31;5035510;28;20072;-81
2023/03/26 05:56:40;;;;;;;12.98;5.07;;;;;;;7.48;100.00;99662.59;5039391;28;20046;-80
2023/03/26 05:59:06;;;;;;;16.40;4.63;;;;;;;7.39;100.00;99653.13;5039391;28;20567;-79
2023/03/26 06:01:33;;;;;;;13.80;4.65;;;;;;;7.24;100.00;99655.53;5038793;28;20079;-78
2023/03/26 06:04:00;;;;;;;16.15;4.57;;;;;;;7.18;100.00;99650.13;5038646;28;20081;-79
2023/03/26 06:06:26;;;;;;;12.60;4.22;;;;;;;7.12;100.00;99643.78;5039404;28;20041;-80
2023/03/26 06:08:54;;;;;;;19.83;5.18;;;;;;;7.05;100.00;99639.38;5039085;28;20041;-79
2023/03/26 06:11:22;;;;;;;19.67;6.35;;;;;;;7.08;100.00;99634.69;5038821;28;20051;-80
2023/03/26 06:13:49;;;;;;;15.90;4.57;;;;;;;7.06;100.00;99638.41;5039289;28;20471;-79
2023/03/26 06:16:16;;;;;;;15.20;4.75;;;;;;;6.97;100.00;99627.16;5038545;28;20128;-80
2023/03/26 06:18:43;;;;;;;15.13;4.60;;;;;;;7.03;100.00;99630.91;5039053;28;20046;-79
2023/03/26 06:21:09;;;;;;;16.60;5.15;;;;;;;7.07;100.00;99627.03;5038599;28;20072;-79
2023/03/26 06:23:36;;;;;;;17.42;4.70;;;;;;;7.08;100.00;99626.06;5038846;28;20110;-80
2023/03/26 06:26:02;;;;;;;18.45;4.93;;;;;;;7.11;100.00;99620.50;5037221;28;20132;-81
2023/03/26 06:28:31;;;;;;;15.85;5.20;;;;;;;7.08;100.00;99616.47;5065270;22;20069;-79
2023/03/26 06:30:59;;;;;;;19.35;5.40;;;;;;;7.11;100.00;99623.13;5059691;28;20045;-79
2023/03/26 06:33:26;;;;;;;17.90;7.32;;;;;;;7.19;100.00;99636.16;5059085;28;20112;-80
2023/03/26 06:35:52;;;;;;;18.73;5.53;;;;;;;7.32;100.00;99631.31;5060459;28;20108;-80
2023/03/26 06:38:19;;;;;;;20.45;5.60;;;;;;;7.35;100.00;99638.00;5060649;28;20480;-79
2023/03/26 06:40:45;;;;;;;16.45;5.38;;;;;;;7.35;100.00;99628.41;5061334;28;20160;-78
2023/03/26 06:43:12;;;;;;;16.35;5.28;;;;;;;7.36;100.00;99632.63;5062584;28;20060;-79
2023/03/26 06:45:40;;;;;;;19.15;6.15;;;;;;;7.40;100.00;99617.50;5062060;28;20041;-78
2023/03/26 06:48:07;;;;;;;12.88;5.57;;;;;;;7.37;100.00;99628.25;5065995;28;20108;-78
2023/03/26 06:50:34;;;;;;;16.08;6.20;;;;;;;7.20;100.00;99627.38;5066493;28;20052;-78
2023/03/26 06:53:01;;;;;;;20.08;5.90;;;;;;;7.19;100.00;99608.34;5058058;28;20080;-79
2023/03/26 06:55:28;;;;;;;20.13;6.53;;;;;;;7.19;100.00;99620.53;5063838;28;20124;-79
2023/03/26 06:57:56;;;;;;;23.17;8.10;;;;;;;7.23;100.00;99614.88;5065525;28;20060;-79
2023/03/26 07:00:24;;;;;;;19.30;6.15;;;;;;;7.24;100.00;99613.06;5066092;28;20057;-80
2023/03/26 07:02:52;;;;;;;18.25;6.57;;;;;;;7.20;100.00;99611.75;5064269;28;20131;-79
2023/03/26 07:05:19;;;;;;;25.77;6.68;;;;;;;7.23;100.00;99603.66;5066997;28;20056;-79
2023/03/26 07:07:45;;;;;;;16.55;5.82;;;;;;;7.27;100.00;99597.16;5065996;28;20132;-79
2023/03/26 07:10:12;;;;;;;17.02;5.72;;;;;;;7.34;100.00;99592.94;5066809;28;20045;-80
2023/03/26 07:12:40;;;;;;;13.48;6.18;;;;;;;7.27;100.00;99584.13;5066635;28;20098;-79
2023/03/26 07:15:08;;;;;;;17.10;5.63;;;;;;;7.32;100.00;99600.09;5067553;28;20093;-79
2023/03/26 07:17:34;;;;;;;15.23;5.95;;;;;;;7.43;100.00;99597.19;5063876;28;20103;-78
2023/03/26 07:20:03;;;;;;;22.20;6.60;;;;;;;7.47;100.00;99597.69;5062735;28;20072;-78
2023/03/26 07:22:30;;;;;;;28.05;7.20;;;;;;;7.50;100.00;99592.16;5058760;28;20132;-79
2023/03/26 07:24:58;;;;;;;19.08;6.75;;;;;;;7.47;100.00;99592.47;5061981;28;20483;-79
2023/03/26 07:27:37;;;;;;;19.83;7.20;;;;;;;7.41;100.00;99586.13;5061771;28;20066;-79
2023/03/26 07:30:08;;;;;;;20.80;6.30;;;;;;;7.38;100.00;99586.44;5059814;28;20052;-78
2023/03/26 07:32:43;;;;;;;22.88;6.78;;;;;;;7.36;100.00;99580.59;5054873;28;20136;-79
2023/03/26 07:35:17;;;;;;;18.25;6.65;;;;;;;7.37;100.00;99587.41;5056889;28;20048;-79
2023/03/26 07:37:52;;;;;;;21.70;7.07;;;;;;;7.33;100.00;99580.91;5057571;28;20112;-80
2023/03/26 07:40:42;;;;;;;19.63;6.40;;;;;;;7.35;100.00;99573.75;5057511;28;20041;-80
2023/03/26 07:43:20;;;;;;;22.50;8.10;;;;;;;7.34;100.00;99561.72;5048638;28;20049;-79
2023/03/26 07:45:47;;;;;;;19.98;8.00;;;;;;;7.35;100.00;99555.53;5055235;28;20124;-79
2023/03/26 07:48:17;;;;;;;20.67;7.95;;;;;;;7.34;100.00;99556.50;5055148;28;20045;-79
2023/03/26 07:50:46;;;;;;;18.30;8.52;;;;;;;7.33;100.00;99560.91;5055447;28;20080;-79
2023/03/26 07:53:14;;;;;;;19.58;7.85;;;;;;;7.34;100.00;99561.72;5054198;28;20471;-78
2023/03/26 07:55:50;;;;;;;23.35;7.90;;;;;;;7.31;100.00;99551.63;5054437;28;20128;-79
2023/03/26 07:58:36;;;;;;;26.77;8.07;;;;;;;7.31;100.00;99551.63;5054056;28;20518;-79
2023/03/26 08:01:09;;;;;;;18.33;7.03;;;;;;;7.32;100.00;99553.25;5054226;28;20132;-77
2023/03/26 08:04:08;;;;;;;21.27;6.93;;;;;;;7.33;100.00;99550.47;5054181;28;20051;-80
2023/03/26 08:06:38;;;;;;;21.17;6.82;;;;;;;7.34;100.00;99551.31;5055552;28;20045;-77
2023/03/26 08:09:14;;;;;;;23.17;7.65;;;;;;;7.38;100.00;99543.97;5055320;28;20084;-78
2023/03/26 08:11:53;;;;;;;19.73;7.50;;;;;;;7.34;100.00;99546.09;5055010;28;20049;-80
2023/03/26 08:14:32;;;;;;;28.05;7.50;;;;;;;7.35;100.00;99542.53;5057325;28;20049;-78
2023/03/26 08:17:06;;;;;;;20.70;7.55;;;;;;;7.36;100.00;99544.16;5056025;28;20048;-80
2023/03/26 08:19:43;;;;;;;20.08;7.47;;;;;;;7.33;100.00;99545.28;5056474;28;20057;-80
2023/03/26 08:22:16;;;;;;;20.70;7.47;;;;;;;7.42;100.00;99537.47;5050838;28;20087;-80
2023/03/26 08:25:10;;;;;;;24.88;7.70;;;;;;;7.37;100.00;99535.38;5055778;28;20077;-80
2023/03/26 08:27:39;;;;;;;19.35;7.47;;;;;;;7.39;100.00;99537.81;5054876;28;20423;-79
2023/03/26 08:30:10;;;;;;;20.33;6.97;;;;;;;7.39;100.00;99533.41;5054470;28;20107;-80
2023/03/26 08:32:38;;;;;;;19.30;8.10;;;;;;;7.41;100.00;99530.66;5052940;28;20419;-78
2023/03/26 08:35:05;;;;;;;20.20;6.78;;;;;;;7.39;100.00;99536.00;5056280;28;20536;-79
2023/03/26 08:37:33;;;;;;;15.82;5.75;;;;;;;7.40;100.00;99529.84;5057779;28;20128;-79
2023/03/26 08:40:00;;;;;;;17.08;6.43;;;;;;;7.39;100.00;99528.22;5056991;28;20128;-78
2023/03/26 08:43:09;;;;;;;16.27;5.60;;;;;;;7.38;100.00;99525.75;5055621;28;20065;-78
2023/03/26 08:45:52;;;;;;;16.58;5.97;;;;;;;7.36;100.00;99520.72;5055771;28;20045;-79
2023/03/26 08:48:55;;;;;;;13.68;5.75;;;;;;;7.33;100.00;99528.84;5057046;28;20073;-78
2023/03/26 08:51:54;;;;;;;12.63;6.18;;;;;;;7.31;100.00;99516.00;5028280;28;20503;-79
2023/03/26 08:54:38;;;;;;;15.60;5.90;;;;;;;7.31;100.00;99516.00;5054193;28;20123;-77
2023/03/26 08:57:28;;;;;;;21.60;8.25;;;;;;;7.32;100.00;99511.63;5052523;28;20569;-79
2023/03/26 09:00:20;;;;;;;12.40;5.82;;;;;;;7.35;100.00;99511.28;5052987;28;20144;-79
2023/03/26 09:03:18;;;;;;;18.17;6.30;;;;;;;7.37;100.00;99506.75;5053994;28;20136;-78
2023/03/26 09:06:02;;;;;;;12.15;6.45;;;;;;;7.40;100.00;99509.00;5010518;28;20496;-77
2023/03/26 09:08:59;;;;;;;22.27;6.32;;;;;;;7.39;100.00;99506.56;5058132;28;20056;-79
2023/03/26 09:11:51;;;;;;;14.00;5.25;;;;;;;7.34;100.00;99499.25;5051278;28;20076;-78
2023/03/26 09:14:46;;;;;;;11.45;4.82;;;;;;;7.41;100.00;99497.63;5049399;28;20127;-80
2023/03/26 09:17:52;;;;;;;12.50;3.90;;;;;;;7.39;100.00;99485.75;5045781;28;20475;-80
2023/03/26 09:21:00;;;;;;;7.63;3.33;;;;;;;7.29;100.00;99472.91;5052946;28;20132;-77
2023/03/26 09:23:57;;;;;;;8.07;3.58;;;;;;;7.24;100.00;99462.16;5053733;28;20132;-76
2023/03/26 09:26:26;;;;;;;7.03;2.80;;;;;;;7.25;100.00;99463.78;5053545;28;20384;-79
2023/03/26 09:29:29;;;;;;;4.70;2.65;;;;;;;7.24;100.00;99462.16;5054373;28;20080;-78
2023/03/26 09:32:14;;;;;;;7.30;3.15;;;;;;;7.30;100.00;99445.91;5053880;28;20093;-79
2023/03/26 09:35:03;;;;;;;9.70;3.25;;;;;;;7.38;100.00;99442.50;5057440;28;20053;-76
2023/03/26 09:37:47;;;;;;;9.25;3.83;;;;;;;7.28;100.00;99440.88;5062287;28;20056;-77
2023/03/26 09:40:17;;;;;;;13.75;3.72;;;;;;;7.31;100.00;99442.31;5047761;28;20106;-78
2023/03/26 09:42:45;;;;;;;10.40;3.75;;;;;;;7.42;100.00;99439.41;5052136;28;20053;-78
2023/03/26 09:45:58;;;;;;;9.15;4.10;;;;;;;7.45;100.00;99433.06;5052802;28;20131;-78
2023/03/26 09:48:46;;;;;;;11.45;4.93;;;;;;;7.52;100.00;99440.03;5051361;28;20143;-77
2023/03/26 09:51:40;;;;;;;10.98;4.47;;;;;;;7.46;100.00;99427.69;5053008;28;20057;-77
2023/03/26 09:54:37;;;;;;;10.38;4.75;;;;;;;7.60;100.00;99421.78;5053233;28;20422;-78
2023/03/26 09:57:14;;;;;;;10.00;3.90;;;;;;;7.48;100.00;99417.91;5051877;28;20111;-77
2023/03/26 09:59:56;;;;;;;8.10;4.32;;;;;;;7.62;100.00;99409.41;5054112;28;20049;-78
2023/03/26 10:02:40;;;;;;;7.50;3.97;;;;;;;7.62;100.00;99417.22;5052593;28;20081;-77
2023/03/26 10:05:49;;;;;;;9.05;3.75;;;;;;;7.60;100.00;99406.16;5057808;28;20498;-77
2023/03/26 10:08:37;;;;;;;8.43;4.03;;;;;;;7.76;100.00;99410.50;5012251;28;20463;-77
2023/03/26 10:11:11;;;;;;;8.55;4.00;;;;;;;7.71;100.00;99405.00;5052026;28;20633;-79
2023/03/26 10:14:11;;;;;;;8.98;3.92;;;;;;;7.53;100.00;99400.00;5050717;28;20126;-78
2023/03/26 10:16:56;;;;;;;8.05;3.47;;;;;;;7.54;100.00;99390.41;5053253;28;20048;-78
2023/03/26 10:19:46;;;;;;;7.05;3.70;;;;;;;7.54;100.00;99393.03;5054902;28;20072;-78
2023/03/26 10:22:40;;;;;;;6.85;3.83;;;;;;;7.64;100.00;99397.03;5052123;28;20496;-78
2023/03/26 10:25:38;;;;;;;10.70;4.22;;;;;;;7.58;100.00;99394.28;5053630;28;20049;-78
2023/03/26 11:18:50;;;;;;;8.70;4.38;;;;;;;8.53;100.00;99345.47;4987414;22;20516;-87
2023/03/26 11:21:24;;;;;;;10.50;4.53;;;;;;;8.61;100.00;99337.59;5062670;28;20040;-87
2023/03/26 11:24:09;;;;;;;9.80;4.63;;;;;;;8.56;100.00;99329.50;5071048;28;20744;-87
2023/03/26 11:26:47;;;;;;;6.82;4.30;;;;;;;8.61;100.00;99327.19;5067930;28;20045;-87
2023/03/26 11:29:47;;;;;;;7.05;4.32;;;;;;;8.31;100.00;99332.25;5079547;28;20048;-87
2023/03/26 11:32:17;;;;;;;6.15;3.88;;;;;;;8.32;100.00;99318.28;5074686;28;20040;-88
2023/03/26 11:34:50;;;;;;;10.10;4.68;;;;;;;8.13;100.00;99318.69;5061339;28;20536;-87
2023/03/26 11:37:31;;;;;;;10.23;4.15;;;;;;;8.11;100.00;99319.84;5057510;28;20049;-88
2023/03/26 11:40:23;;;;;;;12.13;4.25;;;;;;;8.12;100.00;99317.06;5067643;28;20088;-88
2023/03/26 11:42:53;;;;;;;9.18;4.80;;;;;;;8.06;100.00;99328.16;5052109;28;20036;-89
2023/03/26 11:45:24;;;;;;;7.97;4.55;;;;;;;8.10;100.00;99326.84;5062950;28;20360;-88
2023/03/26 11:47:56;;;;;;;9.63;4.50;;;;;;;8.15;100.00;99334.13;5062348;28;20045;-88
2023/03/26 11:50:28;;;;;;;7.78;4.15;;;;;;;8.15;100.00;99331.53;5058732;28;20114;-87
2023/03/26 11:52:59;;;;;;;9.70;4.50;;;;;;;8.12;100.00;99334.47;5057003;28;20060;-88
2023/03/26 11:55:26;;;;;;;8.80;4.20;;;;;;;8.12;100.00;99337.09;5054527;28;20056;-89
2023/03/26 11:57:58;;;;;;;7.50;4.05;;;;;;;8.23;100.00;99328.88;5057614;28;20040;-88
2023/03/26 12:00:28;;;;;;;9.38;4.40;;;;;;;8.49;100.00;99339.03;5061401;28;20044;-89
2023/03/26 12:03:00;;;;;;;6.45;4.00;;;;;;;8.53;100.00;99341.09;5066230;28;20127;-90
2023/03/26 12:05:32;;;;;;;11.40;4.20;;;;;;;8.51;100.00;99337.03;5065029;28;20079;-90
2023/03/26 12:08:00;;;;;;;7.65;4.40;;;;;;;8.56;100.00;99340.72;5065124;28;20112;-91
2023/03/26 12:10:33;;;;;;;8.02;4.35;;;;;;;8.61;100.00;99332.41;5070345;28;20049;-91
2023/03/26 12:13:28;;;;;;;8.75;4.30;;;;;;;8.84;100.00;99333.19;5060967;28;20130;-91
2023/03/26 12:16:09;;;;;;;9.02;4.10;;;;;;;8.87;100.00;99340.66;5064913;28;20056;-90
2023/03/26 12:19:19;;;;;;;7.07;4.70;;;;;;;8.82;100.00;99314.31;5064593;28;20080;-92
2023/03/26 12:34:09;;;;;;;11.57;6.15;;;;;;;9.19;100.00;99312.63;5010636;28;20057;-79
2023/03/26 12:37:00;;;;;;;8.05;6.30;;;;;;;9.38;100.00;99340.81;5013596;28;20105;-79
2023/03/26 12:43:56;;;;;;;;;;;;;;;;;;;;;
2023/03/26 12:46:54;;;;;;;9.13;4.70;;;;;;;9.53;100.00;99336.41;4997685;28;20069;-78
2023/03/26 12:52:52;;;;;;;9.27;4.93;;;;;;;9.37;100.00;99328.75;5016079;28;20069;-81
2023/03/26 12:56:03;;;;;;;29.25;20.15;;;;;;;9.53;100.00;99328.56;5013622;28;20053;-81
2023/03/26 13:09:14;;;;;;;7.22;4.55;;;;;;;9.35;100.00;99335.97;5000315;28;20053;-82
2023/03/26 13:11:50;;;;;;;5.68;4.18;;;;;;;9.12;100.00;99343.03;4975820;28;20057;-82
2023/03/26 13:14:33;;;;;;;8.30;4.50;;;;;;;9.36;100.00;99350.63;5014937;28;20483;-78
2023/03/26 13:17:09;;;;;;;9.45;5.07;;;;;;;9.57;100.00;99366.38;5012893;28;20125;-79
2023/03/26 13:19:42;;;;;;;7.65;4.38;;;;;;;9.87;100.00;99361.16;5015843;28;20049;-79
2023/03/26 13:22:21;;;;;;;7.35;4.50;;;;;;;9.60;100.00;99362.59;5012980;28;20088;-79